createdAt,value
2018-02-06T00:00:37.634Z,78.80
2018-02-06T00:03:05.870Z,73.37
2018-02-06T00:05:34.123Z,91.43
2018-02-06T00:08:03.208Z,89.93
2018-02-06T00:10:32.274Z,87.70
2018-02-06T00:13:00.582Z,86.07
2018-02-06T00:15:29.588Z,78.87
2018-02-06T00:17:57.874Z,77.90
2018-02-06T00:20:26.152Z,81.10
2018-02-06T00:22:54.421Z,100.83
2018-02-06T00:25:22.711Z,74.50
2018-02-06T00:27:51.018Z,76.30
2018-02-06T00:30:19.244Z,75.83
2018-02-06T00:32:48.250Z,77.03
2018-02-06T00:35:16.518Z,71.67
2018-02-06T00:37:44.830Z,77.63
2018-02-06T00:40:13.070Z,79.93
2018-02-06T00:42:41.337Z,73.27
2018-02-06T00:45:10.385Z,70.07
2018-02-06T00:47:38.628Z,78.17
2018-02-06T00:50:06.930Z,74.50
2018-02-06T00:52:35.167Z,69.40
2018-02-06T00:55:03.410Z,71.37
2018-02-06T00:57:31.779Z,80.10
2018-02-06T01:00:00.018Z,81.87
2018-02-06T01:02:28.276Z,85.80
2018-02-06T01:04:56.583Z,73.50
2018-02-06T01:07:24.840Z,72.37
2018-02-06T01:09:53.084Z,82.37
2018-02-06T01:12:22.125Z,82.50
2018-02-06T01:14:51.134Z,73.97
2018-02-06T01:17:19.429Z,70.67
2018-02-06T01:19:47.680Z,68.20
2018-02-06T01:22:15.920Z,67.83
2018-02-06T01:24:44.196Z,67.30
2018-02-06T01:27:12.431Z,70.00
2018-02-06T01:29:40.681Z,75.23
2018-02-06T01:32:08.952Z,85.73
2018-02-06T01:34:37.168Z,90.67
2018-02-06T01:37:06.230Z,81.00
2018-02-06T01:39:34.468Z,69.43
2018-02-06T01:42:02.703Z,72.10
2018-02-06T01:44:30.997Z,65.00
2018-02-06T01:47:00.007Z,73.93
2018-02-06T01:49:28.276Z,61.97
2018-02-06T01:51:56.537Z,70.13
2018-02-06T01:54:25.525Z,68.40
2018-02-06T01:56:54.538Z,65.27
2018-02-06T01:59:22.986Z,63.70
2018-02-06T02:01:51.224Z,63.43
2018-02-06T02:04:19.450Z,63.30
2018-02-06T02:06:48.502Z,66.93
2018-02-06T02:09:16.803Z,63.40
2018-02-06T02:11:45.020Z,66.97
2018-02-06T02:14:13.240Z,66.63
2018-02-06T02:16:42.722Z,64.60
2018-02-06T02:19:10.983Z,66.70
2018-02-06T02:21:39.217Z,63.63
2018-02-06T02:24:08.254Z,61.67
2018-02-06T02:26:36.488Z,62.27
2018-02-06T02:29:05.571Z,66.97
2018-02-06T02:31:33.810Z,64.57
2018-02-06T02:34:02.037Z,64.30
2018-02-06T02:36:31.090Z,61.50
2018-02-06T02:38:59.584Z,66.63
2018-02-06T02:41:27.810Z,62.93
2018-02-06T04:40:12.615Z,44.37
2018-02-06T04:42:41.109Z,52.77
2018-02-06T04:45:09.355Z,48.77
2018-02-06T04:47:38.382Z,52.63
2018-02-06T04:50:06.650Z,52.40
2018-02-06T04:52:34.935Z,51.70
2018-02-06T04:55:03.206Z,52.03
2018-02-06T04:57:31.505Z,49.33
2018-02-06T04:59:59.728Z,51.00
2018-02-06T05:02:28.702Z,52.70
2018-02-06T05:04:56.990Z,47.90
2018-02-06T05:07:25.985Z,50.10
2018-02-06T05:09:54.985Z,52.50
2018-02-06T05:12:24.037Z,49.30
2018-02-06T05:14:52.276Z,52.83
2018-02-06T05:17:20.496Z,52.20
2018-02-06T05:19:48.762Z,52.63
2018-02-06T05:22:17.001Z,50.63
2018-02-06T05:24:45.240Z,50.03
2018-02-06T05:27:13.526Z,51.27
2018-02-06T05:29:42.536Z,50.67
2018-02-06T05:32:10.772Z,48.03
2018-02-06T05:34:39.069Z,56.23
2018-02-06T05:37:08.065Z,48.07
2018-02-06T05:39:37.056Z,51.70
2018-02-06T05:42:06.077Z,52.50
2018-02-06T05:44:34.374Z,53.00
2018-02-06T05:47:02.601Z,49.20
2018-02-06T05:49:31.601Z,50.43
2018-02-06T05:52:00.647Z,53.03
2018-02-06T05:54:29.659Z,51.73
2018-02-06T05:56:57.907Z,50.30
2018-02-06T05:59:26.244Z,49.93
2018-02-06T06:01:54.468Z,54.17
2018-02-06T06:04:22.732Z,52.00
2018-02-06T06:06:51.030Z,67.97
2018-02-06T06:09:19.290Z,57.73
2018-02-06T06:11:47.534Z,51.97
2018-02-06T06:14:15.837Z,50.30
2018-02-06T06:16:44.067Z,49.90
2018-02-06T06:19:13.081Z,49.17
2018-02-06T06:21:41.373Z,46.90
2018-02-06T06:24:09.627Z,51.30
2018-02-06T06:26:37.873Z,54.40
2018-02-06T06:29:06.929Z,51.63
2018-02-06T06:31:35.198Z,54.50
2018-02-06T06:34:03.421Z,47.70
2018-02-06T06:36:32.502Z,54.47
2018-02-06T06:39:01.537Z,54.30
2018-02-06T06:41:29.762Z,51.30
2018-02-06T06:43:58.046Z,50.43
2018-02-06T06:46:27.062Z,53.97
2018-02-06T06:48:55.307Z,54.90
2018-02-06T06:51:23.584Z,52.77
2018-02-06T06:53:51.832Z,53.40
2018-02-06T06:56:20.129Z,55.43
2018-02-06T06:58:48.367Z,54.10
2018-02-06T07:01:16.595Z,52.80
2018-02-06T07:03:45.643Z,55.27
2018-02-06T07:06:13.880Z,54.47
2018-02-06T07:08:42.889Z,59.90
2018-02-06T07:11:11.196Z,52.20
2018-02-06T07:13:39.456Z,57.27
2018-02-06T07:16:07.680Z,60.70
2018-02-06T07:18:36.097Z,60.30
2018-02-06T07:21:04.342Z,54.33
2018-02-06T07:23:33.425Z,55.43
2018-02-06T07:26:01.721Z,58.43
2018-02-06T07:28:30.797Z,57.53
2018-02-06T07:30:59.079Z,59.03
2018-02-06T07:33:27.347Z,61.37
2018-02-06T07:35:55.608Z,58.27
2018-02-06T07:38:23.892Z,62.50
2018-02-06T07:40:52.159Z,57.80
2018-02-06T07:43:20.438Z,55.47
2018-02-06T07:45:48.799Z,53.27
2018-02-06T07:48:17.795Z,51.50
2018-02-06T07:50:46.055Z,54.10
2018-02-06T07:53:14.347Z,55.23
2018-02-06T07:55:42.652Z,57.03
2018-02-06T07:58:11.728Z,53.43
2018-02-06T08:00:39.970Z,54.57
2018-02-06T08:03:08.219Z,57.77
2018-02-06T08:05:37.316Z,50.80
2018-02-06T08:08:05.559Z,49.87
2018-02-06T08:10:34.584Z,51.33
2018-02-06T08:13:02.916Z,52.67
2018-02-06T08:15:31.918Z,50.30
2018-02-06T08:18:00.169Z,50.73
2018-02-06T08:20:28.498Z,44.40
2018-02-06T08:22:56.824Z,48.87
2018-02-06T08:25:25.062Z,46.00
2018-02-06T08:27:53.333Z,43.20
2018-02-06T08:30:21.566Z,45.60
2018-02-06T08:32:49.896Z,43.40
2018-02-06T08:35:18.218Z,44.10
2018-02-06T08:37:46.454Z,42.77
2018-02-06T08:40:14.753Z,42.90
2018-02-06T08:42:43.008Z,40.80
2018-02-06T08:45:11.301Z,38.27
2018-02-06T08:47:39.651Z,37.33
2018-02-06T08:50:07.922Z,35.47
2018-02-06T08:52:36.179Z,35.93
2018-02-06T08:55:05.270Z,36.53
2018-02-06T08:57:34.290Z,33.47
2018-02-06T09:00:02.509Z,36.60
2018-02-06T09:02:30.830Z,34.37
2018-02-06T09:04:59.850Z,28.77
2018-02-06T09:07:28.104Z,30.90
2018-02-06T09:09:56.429Z,32.53
2018-02-06T09:12:24.687Z,31.30
2018-02-06T09:14:52.952Z,29.30
2018-02-06T09:17:21.288Z,28.87
2018-02-06T09:19:50.337Z,28.30
2018-02-06T09:22:18.603Z,30.37
2018-02-06T09:24:46.883Z,28.33
2018-02-06T09:27:15.153Z,28.53
2018-02-06T09:29:43.478Z,24.67
2018-02-06T09:32:11.755Z,25.17
2018-02-06T09:34:40.060Z,25.53
2018-02-06T09:37:08.357Z,26.60
2018-02-06T09:39:36.612Z,25.17
2018-02-06T09:42:04.869Z,24.83
2018-02-06T09:44:34.030Z,27.80
2018-02-06T09:47:02.281Z,25.30
2018-02-06T09:49:30.529Z,24.10
2018-02-06T09:51:58.947Z,21.57
2018-02-06T09:54:27.202Z,23.17
2018-02-06T09:56:55.457Z,22.77
2018-02-06T09:59:23.829Z,22.30
2018-02-06T10:01:52.863Z,22.97
2018-02-06T10:04:21.107Z,20.23
2018-02-06T10:06:49.419Z,22.33
2018-02-06T10:09:17.696Z,20.57
2018-02-06T10:11:45.969Z,20.90
2018-02-06T10:14:14.289Z,19.40
2018-02-06T10:16:43.384Z,19.40
2018-02-06T10:19:12.415Z,19.63
2018-02-06T10:21:40.755Z,20.93
2018-02-06T10:24:09.015Z,22.00
2018-02-06T10:26:37.271Z,19.30
2018-02-06T10:29:05.692Z,18.77
2018-02-06T10:31:34.733Z,18.93
2018-02-06T10:34:03.000Z,19.23
2018-02-06T10:36:31.419Z,18.17
2018-02-06T10:38:59.703Z,17.63
2018-02-06T10:41:27.957Z,16.70
2018-02-06T10:43:56.306Z,17.40
2018-02-06T10:46:24.566Z,17.63
2018-02-06T10:48:52.942Z,16.90
2018-02-06T10:51:21.301Z,14.70
2018-02-06T10:53:50.325Z,17.90
2018-02-06T10:56:18.786Z,18.27
2018-02-06T10:58:47.041Z,16.17
2018-02-06T11:01:16.237Z,17.43
2018-02-06T11:03:45.381Z,18.70
2018-02-06T11:06:13.836Z,17.90
2018-02-06T11:08:42.106Z,17.73
2018-02-06T11:11:10.457Z,15.80
2018-02-06T11:13:38.717Z,17.07
2018-02-06T11:16:07.002Z,15.87
2018-02-06T11:18:35.317Z,16.10
2018-02-06T11:21:03.581Z,14.43
2018-02-06T11:23:32.685Z,15.67
2018-02-06T11:26:01.048Z,13.87
2018-02-06T11:28:29.336Z,16.57
2018-02-06T11:30:58.407Z,15.37
2018-02-06T11:33:26.740Z,16.70
2018-02-06T11:35:55.061Z,15.60
2018-02-06T11:38:23.435Z,18.30
2018-02-06T11:40:51.795Z,17.27
2018-02-06T11:43:20.075Z,18.47
2018-02-06T11:45:48.344Z,14.90
2018-02-06T11:48:16.673Z,17.40
2018-02-06T11:50:45.696Z,15.77
2018-02-06T11:53:13.963Z,13.27
2018-02-06T11:55:42.329Z,15.40
2018-02-06T11:58:10.747Z,14.30
2018-02-06T12:00:39.014Z,14.57
2018-02-06T12:03:07.345Z,15.40
2018-02-06T12:05:36.505Z,14.13
2018-02-06T12:08:04.748Z,15.63
2018-02-06T12:10:33.071Z,13.23
2018-02-06T12:13:01.334Z,13.50
2018-02-06T12:15:29.589Z,13.00
2018-02-06T12:17:57.873Z,13.20
2018-02-06T12:20:26.118Z,13.00
2018-02-06T12:22:54.530Z,13.53
2018-02-06T12:25:22.802Z,12.73
2018-02-06T12:27:51.065Z,14.70
2018-02-06T12:30:19.418Z,12.27
2018-02-06T12:32:47.751Z,16.50
2018-02-06T12:35:16.056Z,12.40
2018-02-06T12:37:45.165Z,13.70
2018-02-06T12:40:13.576Z,14.07
2018-02-06T12:42:41.876Z,12.80
2018-02-06T12:45:10.385Z,13.30
2018-02-06T12:47:38.653Z,16.70
2018-02-06T12:50:07.813Z,14.40
2018-02-06T12:52:36.352Z,17.17
2018-02-06T12:55:04.633Z,13.00
2018-02-06T12:57:33.102Z,14.47
2018-02-06T13:00:01.492Z,15.17
2018-02-06T13:02:29.912Z,16.73
2018-02-06T13:04:59.316Z,13.43
2018-02-06T13:07:27.834Z,16.27
2018-02-06T13:09:56.414Z,13.10
2018-02-06T13:12:24.702Z,15.80
2018-02-06T13:14:52.999Z,14.83
2018-02-06T13:17:21.500Z,17.33
2018-02-06T13:19:50.053Z,16.50
2018-02-06T13:22:18.687Z,14.20
2018-02-06T13:24:47.737Z,15.63
2018-02-06T13:27:16.256Z,12.60
2018-02-06T13:29:44.904Z,16.53
2018-02-06T13:32:13.173Z,16.50
2018-02-06T13:34:41.537Z,14.97
2018-02-06T13:37:10.927Z,14.20
2018-02-06T13:39:39.258Z,14.10
2018-02-06T13:42:07.622Z,14.77
2018-02-06T13:44:36.256Z,14.10
2018-02-06T13:47:04.832Z,15.17
2018-02-06T13:49:33.132Z,12.10
2018-02-06T13:52:02.586Z,14.30
2018-02-06T13:54:31.661Z,14.80
2018-02-06T13:56:59.909Z,12.30
2018-02-06T13:59:28.500Z,15.07
2018-02-06T14:01:57.029Z,14.30
2018-02-06T14:04:25.566Z,13.90
2018-02-06T14:06:53.994Z,14.83
2018-02-06T14:09:22.245Z,16.13
2018-02-06T14:11:50.592Z,14.80
2018-02-06T14:14:19.029Z,13.23
2018-02-06T14:16:47.272Z,12.40
2018-02-06T14:19:15.812Z,14.60
2018-02-06T14:21:44.596Z,15.60
2018-02-06T14:24:13.017Z,12.87
2018-02-06T14:26:41.360Z,14.87
2018-02-06T14:29:10.752Z,15.70
2018-02-06T14:31:39.110Z,12.80
2018-02-06T14:34:07.631Z,13.63
2018-02-06T14:36:35.976Z,14.27
2018-02-06T14:39:05.093Z,12.10
2018-02-06T14:41:34.394Z,13.10
2018-02-06T14:44:02.683Z,13.47
2018-02-06T14:46:31.801Z,14.63
2018-02-06T14:49:00.033Z,13.67
2018-02-06T14:51:28.285Z,11.63
2018-02-06T14:53:56.568Z,13.53
2018-02-06T14:56:24.804Z,12.93
2018-02-06T14:58:53.090Z,13.20
2018-02-06T15:01:21.367Z,13.87
2018-02-06T15:03:49.669Z,14.17
2018-02-06T15:06:17.983Z,13.97
2018-02-06T15:08:46.983Z,12.43
2018-02-06T15:11:15.542Z,12.60
2018-02-06T15:13:44.603Z,14.37
2018-02-06T15:16:12.853Z,13.00
2018-02-06T15:18:41.150Z,15.73
2018-02-06T15:21:09.396Z,17.27
2018-02-06T15:23:37.637Z,13.03
2018-02-06T15:26:06.690Z,14.30
2018-02-06T15:28:34.960Z,12.87
2018-02-06T15:31:03.204Z,14.60
2018-02-06T15:33:31.586Z,14.80
2018-02-06T15:35:59.952Z,14.90
2018-02-06T15:38:28.251Z,18.10
2018-02-06T15:40:56.490Z,14.97
2018-02-06T15:43:25.534Z,21.40
2018-02-06T15:45:53.913Z,17.03
2018-02-06T15:48:22.190Z,23.03
2018-02-06T15:50:50.542Z,15.87
2018-02-06T15:53:18.985Z,14.80
2018-02-06T15:55:48.040Z,23.00
2018-02-06T15:58:16.886Z,18.70
2018-02-06T16:00:51.584Z,17.70
2018-02-06T16:03:19.954Z,19.20
2018-02-06T16:05:48.251Z,21.50
2018-02-06T16:08:16.583Z,18.07
2018-02-06T16:10:45.023Z,18.00
2018-02-06T16:13:14.068Z,16.60
2018-02-06T16:15:42.365Z,16.37
2018-02-06T16:18:10.625Z,20.20
2018-02-06T16:20:38.870Z,22.63
2018-02-06T16:23:07.870Z,19.20
2018-02-06T16:25:36.121Z,20.33
2018-02-06T16:28:04.394Z,24.93
2018-02-06T16:30:33.461Z,18.70
2018-02-06T16:33:02.844Z,25.27
2018-02-06T16:35:31.090Z,19.87
2018-02-06T16:37:59.471Z,20.90
2018-02-06T16:40:27.767Z,17.47
2018-02-06T16:42:56.027Z,25.37
2018-02-06T16:45:24.292Z,21.37
2018-02-06T16:47:52.530Z,20.97
2018-02-06T16:50:21.607Z,19.43
2018-02-06T16:52:49.859Z,19.60
2018-02-06T16:55:18.120Z,24.03
2018-02-06T16:57:46.363Z,19.90
2018-02-06T17:00:15.414Z,22.93
2018-02-06T17:02:43.628Z,23.23
2018-02-06T17:05:12.625Z,27.50
2018-02-06T17:07:41.664Z,25.37
2018-02-06T17:10:09.981Z,30.80
2018-02-06T17:12:39.231Z,21.13
2018-02-06T17:15:07.472Z,24.40
2018-02-06T17:17:36.465Z,22.27
2018-02-06T17:20:05.520Z,23.10
2018-02-06T17:22:33.768Z,27.03
2018-02-06T17:25:02.054Z,23.70
2018-02-06T17:27:30.284Z,25.43
2018-02-06T17:29:59.292Z,22.17
2018-02-06T17:32:27.706Z,22.80
2018-02-06T17:34:55.948Z,25.50
2018-02-06T17:37:24.318Z,25.23
2018-02-06T17:39:52.680Z,28.70
2018-02-06T17:42:20.951Z,26.00
2018-02-06T17:44:49.952Z,30.43
2018-02-06T17:47:19.013Z,29.27
2018-02-06T17:49:47.274Z,25.60
2018-02-06T17:52:15.521Z,25.50
2018-02-06T17:54:45.536Z,28.20
2018-02-06T17:57:13.775Z,30.00
2018-02-06T17:59:41.997Z,30.00
2018-02-06T18:02:10.332Z,26.43
2018-02-06T18:04:38.702Z,27.97
2018-02-06T18:07:07.841Z,31.97
2018-02-06T18:09:36.656Z,30.00
2018-02-06T18:12:04.881Z,30.60
2018-02-06T18:14:33.884Z,27.17
2018-02-06T18:17:02.978Z,28.07
2018-02-06T18:19:31.996Z,29.37
2018-02-06T18:22:00.216Z,29.73
2018-02-06T18:24:28.489Z,55.87
2018-02-06T18:26:56.745Z,37.30
2018-02-06T18:29:24.967Z,31.13
2018-02-06T18:31:53.269Z,29.67
2018-02-06T18:34:21.513Z,28.73
2018-02-06T18:36:50.555Z,35.50
2018-02-06T18:39:18.853Z,34.97
2018-02-06T18:41:47.980Z,30.90
2018-02-06T18:44:16.267Z,31.40
2018-02-06T18:46:44.905Z,33.43
2018-02-06T18:49:13.140Z,32.53
2018-02-06T18:51:41.390Z,30.00
2018-02-06T18:54:09.679Z,37.03
2018-02-06T18:56:37.916Z,33.70
2018-02-06T18:59:06.182Z,29.60
2018-02-06T19:01:34.857Z,30.00
2018-02-06T19:04:03.125Z,32.20
2018-02-06T19:06:31.417Z,119.13
2018-02-06T19:08:59.699Z,34.07
2018-02-06T19:11:27.994Z,31.53
2018-02-06T19:13:56.222Z,32.40
2018-02-06T19:16:24.510Z,40.37
2018-02-06T19:18:52.741Z,38.37
2018-02-06T19:21:21.108Z,36.00
2018-02-06T19:23:49.411Z,30.60
2018-02-06T19:26:17.694Z,34.33
2018-02-06T19:28:45.941Z,36.10
2018-02-06T19:31:14.290Z,36.43
2018-02-06T19:33:42.522Z,40.20
2018-02-06T19:36:10.824Z,34.23
2018-02-06T19:38:39.112Z,33.67
2018-02-06T19:41:07.475Z,35.23
2018-02-06T19:43:35.726Z,35.67
2018-02-06T19:46:04.031Z,38.03
2018-02-06T19:48:32.294Z,36.77
2018-02-06T19:51:00.528Z,40.60
2018-02-06T19:53:28.808Z,42.63
2018-02-06T19:55:57.042Z,34.60
2018-02-06T19:58:25.295Z,43.57
2018-02-06T20:00:53.601Z,35.50
2018-02-06T20:03:22.626Z,43.20
2018-02-06T20:05:51.186Z,40.23
2018-02-06T20:08:20.222Z,35.40
2018-02-06T20:10:48.537Z,39.87
2018-02-06T20:13:16.794Z,37.47
2018-02-06T20:15:45.056Z,40.20
2018-02-06T20:18:13.370Z,38.80
2018-02-06T20:20:41.620Z,35.50
2018-02-06T20:23:09.891Z,37.37
2018-02-06T20:25:38.211Z,38.73
2018-02-06T20:28:07.576Z,43.67
2018-02-06T20:30:36.670Z,34.07
2018-02-06T20:33:04.970Z,40.87
2018-02-06T20:35:33.225Z,36.93
2018-02-06T20:38:01.533Z,36.57
2018-02-06T20:40:29.782Z,38.37
2018-02-06T20:42:58.040Z,38.70
2018-02-06T20:45:26.340Z,36.70
2018-02-06T20:47:54.631Z,37.90
2018-02-06T20:50:22.843Z,37.23
2018-02-06T20:52:51.144Z,37.10
2018-02-06T20:55:19.376Z,36.27
2018-02-06T20:57:48.397Z,46.30
2018-02-06T21:00:16.699Z,38.37
2018-02-06T21:02:45.697Z,43.33
2018-02-06T21:05:13.936Z,39.53
2018-02-06T21:07:42.244Z,46.70
2018-02-06T21:10:10.494Z,36.90
2018-02-06T21:12:38.749Z,36.53
2018-02-06T21:15:07.977Z,39.40
2018-02-06T21:17:36.247Z,38.80
2018-02-06T21:20:04.487Z,40.90
2018-02-06T21:22:33.793Z,36.30
2018-02-06T21:25:02.797Z,39.33
2018-02-06T21:27:31.024Z,37.70
2018-02-06T21:29:59.325Z,36.93
2018-02-06T21:32:28.312Z,38.23
2018-02-06T21:34:56.559Z,42.07
2018-02-06T21:37:24.856Z,40.77
2018-02-06T21:39:53.106Z,47.87
2018-02-06T21:42:21.346Z,43.17
2018-02-06T21:44:49.598Z,46.70
2018-02-06T21:47:18.613Z,41.13
2018-02-06T21:49:46.899Z,39.10
2018-02-06T21:52:15.165Z,39.17
2018-02-06T21:54:43.446Z,39.57
2018-02-06T21:57:11.749Z,41.80
2018-02-06T21:59:40.007Z,45.83
2018-02-06T22:02:08.277Z,45.67
2018-02-06T22:04:36.609Z,39.47
2018-02-06T22:07:04.857Z,41.07
2018-02-06T22:09:33.115Z,42.30
2018-02-06T22:12:01.594Z,40.47
2018-02-06T22:14:29.834Z,36.63
2018-02-06T22:16:58.083Z,42.80
2018-02-06T22:19:26.876Z,42.67
2018-02-06T22:21:55.120Z,42.57
2018-02-06T22:24:23.372Z,44.93
2018-02-06T22:26:51.780Z,50.10
2018-02-06T22:29:20.834Z,47.27
2018-02-06T22:31:49.101Z,43.73
2018-02-06T22:34:17.447Z,47.33
2018-02-06T22:36:45.770Z,41.83
2018-02-06T22:39:14.009Z,39.97
2018-02-06T22:41:42.300Z,46.27
2018-02-06T22:44:11.319Z,46.50
2018-02-06T22:46:39.576Z,40.70
2018-02-06T22:49:08.647Z,48.17
2018-02-06T22:51:36.884Z,41.37
2018-02-06T22:54:05.116Z,39.90
2018-02-06T22:56:34.167Z,45.50
2018-02-06T22:59:02.409Z,40.70
2018-02-06T23:01:30.741Z,44.33
2018-02-06T23:03:58.973Z,47.13
2018-02-06T23:06:27.245Z,54.07
2018-02-06T23:08:55.548Z,52.83
2018-02-06T23:11:23.780Z,46.17
2018-02-06T23:13:52.061Z,45.60
2018-02-06T23:16:20.279Z,42.63
2018-02-06T23:18:48.525Z,42.73
2018-02-06T23:21:16.780Z,47.07
2018-02-06T23:23:45.091Z,42.40
2018-02-06T23:26:13.324Z,48.70
2018-02-06T23:28:41.571Z,46.87
2018-02-06T23:31:09.877Z,54.47
2018-02-06T23:33:38.101Z,47.80
2018-02-06T23:36:06.335Z,93.37
2018-02-06T23:38:34.639Z,48.37
2018-02-06T23:41:02.881Z,47.70
2018-02-06T23:43:31.114Z,44.10
2018-02-06T23:45:59.409Z,99.70
2018-02-06T23:48:28.424Z,48.90
2018-02-06T23:50:56.649Z,48.27
2018-02-06T23:53:25.086Z,42.37
2018-02-06T23:55:53.321Z,121.60
2018-02-06T23:58:21.561Z,57.93
